Alston, Georgia
Current Conditions -  °F | °C
As of 3:55 AM on Saturday 22 Nov 2014 (Local Time) from KVDI Reporting Station
Broken Clouds Broken Clouds  
Wind Chill:   Ceiling: 5500
Heat Index:   Visibility: 10mi
Dew Point:   Wind: 8mph
Humidity: 87%   Direction: 60°ENE
Pressure: 30.42"   Gusts: NA
Location:  32.08°N, 82.48°W
Report Text: KVDI 220855Z AUTO 06007KT 10SM SCT048 BKN055 07/05 A3042 RMK AO2
Loading
Personal Weather Stations






























Interactive Weather Map New forecast layout! Learn more

10-Day Weather Forecast

Advertisements
Track Severe Weather on mobile